createdAt,value
2018-09-21T00:05:27.158Z,21.40
2018-09-21T00:15:28.435Z,19.87
2018-09-21T00:25:29.726Z,19.47
2018-09-21T00:35:31.046Z,21.57
2018-09-21T00:45:32.319Z,19.90
2018-09-21T00:55:33.771Z,21.43
2018-09-21T01:05:35.027Z,20.17
2018-09-21T01:15:36.395Z,19.77
2018-09-21T01:25:37.686Z,20.10
2018-09-21T01:35:38.955Z,24.17
2018-09-21T01:45:40.219Z,21.43
2018-09-21T01:55:41.513Z,21.23
2018-09-21T02:05:42.793Z,23.33
2018-09-21T02:15:44.065Z,23.57
2018-09-21T02:25:46.101Z,21.60
2018-09-21T02:35:47.395Z,21.47
2018-09-21T02:45:48.667Z,20.10
2018-09-21T02:55:49.982Z,22.37
2018-09-21T03:05:51.246Z,21.47
2018-09-21T03:15:52.535Z,21.43
2018-09-21T03:25:53.815Z,23.00
2018-09-21T03:35:55.078Z,21.13
2018-09-21T03:45:56.345Z,23.37
2018-09-21T03:55:57.611Z,22.53
2018-09-21T04:05:58.894Z,22.43
2018-09-21T04:16:00.161Z,20.77
2018-09-21T04:26:01.430Z,23.87
2018-09-21T04:36:03.505Z,24.67
2018-09-21T04:46:04.768Z,21.00
2018-09-21T04:56:06.034Z,22.47
2018-09-21T05:06:07.286Z,21.90
2018-09-21T05:16:08.546Z,24.83
2018-09-21T05:26:09.814Z,24.27
2018-09-21T05:36:11.066Z,23.93
2018-09-21T05:46:12.330Z,23.63
2018-09-21T05:56:14.449Z,24.40
2018-09-21T06:06:15.666Z,23.50
2018-09-21T06:16:16.964Z,26.73
2018-09-21T06:26:18.232Z,19.73
2018-09-21T06:36:19.500Z,17.47
2018-09-21T06:46:20.779Z,17.90
2018-09-21T06:56:22.035Z,16.13
2018-09-21T07:06:23.408Z,16.63
2018-09-21T07:16:24.680Z,16.10
2018-09-21T07:26:25.942Z,15.63
2018-09-21T07:36:27.239Z,16.77
2018-09-21T07:46:28.518Z,15.80
2018-09-21T07:56:29.832Z,15.67
2018-09-21T08:06:31.105Z,18.00
2018-09-21T08:16:32.374Z,14.63
2018-09-21T08:26:34.453Z,17.40
2018-09-21T08:36:35.711Z,15.27
2018-09-21T08:46:36.985Z,11.63
2018-09-21T08:56:38.246Z,11.15
2018-09-21T09:06:39.502Z,10.77
2018-09-21T09:16:41.252Z,9.85
2018-09-21T09:26:42.490Z,9.63
2018-09-21T09:36:44.555Z,9.95
2018-09-21T09:46:45.934Z,9.48
2018-09-21T09:56:47.253Z,9.40
2018-09-21T10:06:48.526Z,9.85
2018-09-21T10:16:49.824Z,13.82
2018-09-21T10:26:51.085Z,10.90
2018-09-21T10:36:52.363Z,10.10
2018-09-21T10:46:54.370Z,10.52
2018-09-21T10:56:56.402Z,13.50
2018-09-21T11:06:57.658Z,10.95
2018-09-21T11:16:58.923Z,11.80
2018-09-21T11:27:00.211Z,12.32
2018-09-21T11:37:01.615Z,14.98
2018-09-21T11:47:02.929Z,12.13
2018-09-21T11:57:04.187Z,12.40
2018-09-21T12:07:05.431Z,11.77
2018-09-21T12:17:06.737Z,11.82
2018-09-21T12:27:07.951Z,11.38
2018-09-21T12:37:09.999Z,13.00
2018-09-21T12:47:11.236Z,12.88
2018-09-21T12:57:12.512Z,11.82
2018-09-21T13:07:13.787Z,11.48
2018-09-21T13:17:15.075Z,9.77
2018-09-21T13:27:17.110Z,11.52
2018-09-21T13:37:18.855Z,11.88
2018-09-21T13:47:20.907Z,11.15
2018-09-21T13:57:22.187Z,11.80
2018-09-21T14:07:23.436Z,11.63
2018-09-21T14:17:24.813Z,11.90
2018-09-21T14:27:26.077Z,15.45
2018-09-21T14:37:27.342Z,12.15
2018-09-21T14:47:28.755Z,11.25
2018-09-21T15:07:37.980Z,10.95
2018-09-21T15:17:39.358Z,11.93
2018-09-21T15:27:40.626Z,11.05
2018-09-21T15:37:41.903Z,11.77
2018-09-21T15:47:43.945Z,13.68
2018-09-21T15:57:45.215Z,15.53
2018-09-21T16:07:46.491Z,13.57
2018-09-21T16:17:47.729Z,13.17
2018-09-21T16:27:48.998Z,14.43
2018-09-21T16:37:50.240Z,17.13
2018-09-21T16:47:51.526Z,16.43
2018-09-21T16:57:52.860Z,16.20
2018-09-21T17:07:54.959Z,18.42
2018-09-21T17:17:57.274Z,17.27
2018-09-21T17:27:58.537Z,17.00
2018-09-21T17:37:59.815Z,15.80
2018-09-21T17:48:01.051Z,15.87
2018-09-21T17:58:03.495Z,17.63
2018-09-21T18:08:04.722Z,19.20
2018-09-21T18:18:05.971Z,20.67
2018-09-21T18:28:07.245Z,23.27
2018-09-21T18:38:08.500Z,22.13
2018-09-21T18:48:10.534Z,20.87
2018-09-21T18:58:11.860Z,19.87
2018-09-21T19:08:13.152Z,19.83
2018-09-21T19:18:14.453Z,21.33
2018-09-21T19:28:15.750Z,25.30
2018-09-21T19:38:17.058Z,22.43
2018-09-21T19:48:18.328Z,23.37
2018-09-21T19:58:19.553Z,22.57
2018-09-21T20:08:20.804Z,23.30
2018-09-21T20:18:22.047Z,21.57
2018-09-21T20:28:23.315Z,23.90
2018-09-21T20:38:24.579Z,27.37
2018-09-21T20:48:25.838Z,27.07
2018-09-21T20:58:27.099Z,28.10
2018-09-21T21:08:28.368Z,27.90
2018-09-21T21:18:29.747Z,29.93
2018-09-21T21:28:31.024Z,33.23
2018-09-21T21:38:32.261Z,28.93
2018-09-21T21:48:33.506Z,29.27
2018-09-21T21:58:34.739Z,27.53
2018-09-21T22:08:35.972Z,26.77
2018-09-21T22:18:37.216Z,28.80
2018-09-21T22:28:38.478Z,31.77
2018-09-21T22:38:39.738Z,29.27
2018-09-21T22:48:41.008Z,31.03
2018-09-21T22:58:42.289Z,32.57
2018-09-21T23:08:43.606Z,32.70
2018-09-21T23:18:44.906Z,30.13
2018-09-21T23:28:46.220Z,30.93
2018-09-21T23:38:47.470Z,30.77
2018-09-21T23:48:48.720Z,29.00
2018-09-21T23:58:49.985Z,25.60
